createdAt,value
2022-09-12T00:02:44.653Z,14.54
2022-09-12T00:05:47.039Z,14.55
2022-09-12T00:08:48.593Z,14.52
2022-09-12T00:11:50.293Z,14.56
2022-09-12T00:14:51.836Z,14.59
2022-09-12T00:17:53.472Z,14.60
2022-09-12T00:20:55.047Z,14.57
2022-09-12T00:23:56.844Z,14.57
2022-09-12T00:26:58.623Z,14.56
2022-09-12T00:30:00.208Z,14.54
2022-09-12T00:33:01.720Z,14.55
2022-09-12T00:36:07.267Z,14.56
2022-09-12T00:39:09.243Z,14.52
2022-09-12T00:42:11.728Z,14.53
2022-09-12T00:45:20.511Z,14.51
2022-09-12T00:48:23.194Z,14.54
2022-09-12T00:51:24.759Z,14.54
2022-09-12T00:54:27.482Z,14.52
2022-09-12T00:57:33.323Z,14.53
2022-09-12T01:00:34.933Z,14.51
2022-09-12T01:03:36.479Z,14.52
2022-09-12T01:06:39.817Z,14.53
2022-09-12T01:09:42.255Z,14.51
2022-09-12T01:12:43.804Z,14.53
2022-09-12T01:15:45.887Z,14.56
2022-09-12T01:18:51.707Z,14.56
2022-09-12T01:22:31.833Z,14.55
2022-09-12T01:25:51.986Z,14.59
2022-09-12T01:29:08.378Z,14.55
2022-09-12T01:32:42.550Z,14.56
2022-09-12T01:35:46.908Z,14.56
2022-09-12T01:38:50.088Z,14.63
2022-09-12T01:42:11.809Z,14.67
2022-09-12T01:45:25.244Z,14.68
2022-09-12T01:48:28.153Z,14.72
2022-09-12T01:51:35.877Z,14.74
2022-09-12T01:54:42.249Z,14.73
2022-09-12T01:57:54.444Z,14.68
2022-09-12T02:00:55.996Z,14.70
2022-09-12T02:04:03.550Z,14.69
2022-09-12T02:07:12.654Z,14.66
2022-09-12T02:10:18.299Z,14.63
2022-09-12T02:13:27.505Z,14.70
2022-09-12T02:16:30.422Z,14.74
2022-09-12T02:19:34.307Z,14.79
2022-09-12T02:22:35.988Z,14.80
2022-09-12T02:25:38.317Z,14.80
2022-09-12T02:28:41.741Z,14.82
2022-09-12T02:32:02.942Z,14.82
2022-09-12T02:35:08.834Z,14.83
2022-09-12T02:38:11.671Z,14.84
2022-09-12T02:41:14.612Z,14.88
2022-09-12T02:44:16.154Z,14.82
2022-09-12T02:47:23.464Z,14.82
2022-09-12T02:50:25.045Z,14.77
2022-09-12T02:53:26.782Z,14.76
2022-09-12T02:56:29.492Z,14.73
2022-09-12T02:59:31.051Z,14.77
2022-09-12T03:02:41.605Z,14.80
2022-09-12T03:05:47.497Z,14.79
2022-09-12T03:08:54.342Z,14.83
2022-09-12T03:11:59.083Z,14.97
2022-09-12T03:15:07.882Z,15.04
2022-09-12T03:18:12.622Z,15.17
2022-09-12T03:21:14.154Z,14.97
2022-09-12T03:24:20.652Z,14.89
2022-09-12T03:27:29.672Z,14.89
2022-09-12T03:30:32.435Z,14.88
2022-09-12T03:33:34.156Z,15.03
2022-09-12T03:36:35.810Z,15.06
2022-09-12T03:39:37.411Z,15.08
2022-09-12T03:42:39.332Z,15.32
2022-09-12T03:45:40.912Z,15.26
2022-09-12T03:48:42.509Z,15.22
2022-09-12T03:51:44.169Z,15.43
2022-09-12T03:54:45.709Z,15.67
2022-09-12T03:57:47.282Z,15.77
2022-09-12T04:00:48.863Z,15.82
2022-09-12T04:03:50.973Z,15.86
2022-09-12T04:06:52.568Z,15.89
2022-09-12T04:09:54.874Z,15.89
2022-09-12T04:12:56.418Z,15.89
2022-09-12T04:15:59.247Z,15.93
2022-09-12T04:19:00.929Z,15.91
2022-09-12T04:22:02.625Z,15.91
2022-09-12T04:25:04.436Z,15.90
2022-09-12T04:28:05.949Z,15.95
2022-09-12T04:31:12.356Z,15.88
2022-09-12T04:34:15.009Z,15.87
2022-09-12T04:37:17.023Z,15.84
2022-09-12T04:40:19.066Z,15.88
2022-09-12T04:43:20.655Z,15.84
2022-09-12T04:46:22.260Z,15.81
2022-09-12T04:49:24.039Z,15.86
2022-09-12T04:52:25.741Z,15.88
2022-09-12T04:55:28.270Z,15.88
2022-09-12T04:58:31.138Z,15.88
2022-09-12T05:01:33.115Z,15.85
2022-09-12T05:04:34.904Z,15.91
2022-09-12T05:07:36.730Z,15.94
2022-09-12T05:10:38.557Z,15.94
2022-09-12T05:13:40.796Z,15.96
2022-09-12T05:16:45.121Z,16.01
2022-09-12T05:19:50.947Z,16.04
2022-09-12T05:22:52.474Z,16.03
2022-09-12T05:25:54.671Z,16.06
2022-09-12T05:28:56.359Z,16.10
2022-09-12T05:31:58.000Z,16.11
2022-09-12T05:35:00.313Z,16.11
2022-09-12T05:38:01.909Z,16.10
2022-09-12T05:41:07.726Z,16.09
2022-09-12T05:44:11.869Z,16.15
2022-09-12T05:47:13.576Z,16.16
2022-09-12T05:50:15.300Z,16.11
2022-09-12T05:53:17.345Z,16.12
2022-09-12T05:56:20.893Z,16.12
2022-09-12T05:59:24.268Z,16.13
2022-09-12T06:02:26.748Z,16.12
2022-09-12T06:05:28.515Z,16.11
2022-09-12T06:08:31.054Z,16.11
2022-09-12T06:11:33.543Z,16.13
2022-09-12T06:14:35.198Z,16.15
2022-09-12T06:17:36.758Z,16.16
2022-09-12T06:20:38.331Z,16.15
2022-09-12T06:23:40.206Z,16.19
2022-09-12T06:26:41.996Z,16.21
2022-09-12T06:29:43.530Z,16.21
2022-09-12T06:32:45.156Z,16.24
2022-09-12T06:35:46.711Z,16.24
2022-09-12T06:38:51.243Z,16.29
2022-09-12T06:41:52.882Z,16.33
2022-09-12T06:45:08.026Z,16.33
2022-09-12T06:48:09.524Z,16.36
2022-09-12T06:51:13.485Z,16.39
2022-09-12T06:54:15.686Z,16.40
2022-09-12T06:57:18.020Z,16.38
2022-09-12T07:00:19.611Z,16.41
2022-09-12T07:03:21.210Z,16.46
2022-09-12T07:06:29.870Z,16.52
2022-09-12T07:09:31.402Z,16.53
2022-09-12T07:12:32.970Z,16.59
2022-09-12T07:15:35.065Z,16.61
2022-09-12T07:18:38.134Z,16.63
2022-09-12T07:21:40.494Z,16.62
2022-09-12T07:24:42.277Z,16.63
2022-09-12T07:27:46.210Z,16.71
2022-09-12T07:30:51.558Z,16.76
2022-09-12T07:33:54.818Z,16.77
2022-09-12T07:36:56.610Z,16.82
2022-09-12T07:39:58.724Z,16.88
2022-09-12T07:43:00.681Z,17.00
2022-09-12T07:46:02.365Z,17.08
2022-09-12T07:49:03.933Z,17.06
2022-09-12T07:52:05.760Z,17.15
2022-09-12T07:55:07.443Z,17.23
2022-09-12T07:58:09.013Z,17.34
2022-09-12T08:01:13.138Z,17.44
2022-09-12T08:04:14.790Z,17.56
2022-09-12T08:07:18.344Z,17.58
2022-09-12T08:10:19.989Z,17.65
2022-09-12T08:13:21.517Z,17.54
2022-09-12T08:16:26.669Z,17.55
2022-09-12T08:19:28.217Z,17.50
2022-09-12T08:22:30.725Z,17.49
2022-09-12T08:25:32.283Z,17.48
2022-09-12T08:28:41.038Z,17.48
2022-09-12T08:31:42.592Z,17.37
2022-09-12T08:34:44.242Z,17.50
2022-09-12T08:37:46.026Z,17.47
2022-09-12T08:40:51.978Z,17.51
2022-09-12T08:43:56.709Z,17.48
2022-09-12T08:47:04.493Z,17.48
2022-09-12T08:50:09.528Z,17.45
2022-09-12T08:53:14.666Z,17.52
2022-09-12T08:56:16.774Z,17.49
2022-09-12T08:59:18.298Z,17.50
2022-09-12T09:02:22.832Z,17.56
2022-09-12T09:05:36.786Z,17.63
2022-09-12T09:08:38.305Z,17.80
2022-09-12T09:11:47.946Z,17.79
2022-09-12T09:14:49.876Z,17.81
2022-09-12T09:18:10.787Z,17.89
2022-09-12T09:21:22.013Z,18.01
2022-09-12T09:24:27.752Z,17.99
2022-09-12T09:27:40.843Z,18.15
2022-09-12T09:30:44.772Z,18.26
2022-09-12T09:33:47.117Z,18.48
2022-09-12T09:36:52.855Z,18.56
2022-09-12T09:39:54.470Z,18.68
2022-09-12T09:42:56.209Z,18.64
2022-09-12T09:45:58.293Z,18.84
2022-09-12T09:49:02.454Z,19.13
2022-09-12T09:52:04.064Z,19.17
2022-09-12T09:55:05.789Z,19.07
2022-09-12T09:58:07.373Z,19.07
2022-09-12T10:01:16.385Z,19.26
2022-09-12T10:04:28.061Z,19.56
2022-09-12T10:07:29.711Z,19.88
2022-09-12T10:10:31.222Z,20.16
2022-09-12T10:13:37.936Z,20.34
2022-09-12T10:16:51.419Z,20.74
2022-09-12T10:20:04.861Z,20.66
2022-09-12T10:23:29.468Z,20.34
2022-09-12T10:26:35.681Z,19.97
2022-09-12T10:30:00.590Z,19.79
2022-09-12T10:33:08.718Z,19.82
2022-09-12T10:36:10.320Z,19.87
2022-09-12T10:39:13.945Z,19.82
2022-09-12T10:42:16.784Z,19.93
2022-09-12T10:45:24.921Z,19.74
2022-09-12T10:48:33.099Z,19.50
2022-09-12T10:51:34.949Z,19.23
2022-09-12T10:54:36.621Z,19.01
2022-09-12T10:57:38.200Z,18.90
2022-09-12T11:00:41.242Z,18.91
2022-09-12T11:03:42.768Z,18.77
2022-09-12T11:07:03.693Z,18.97
2022-09-12T11:10:19.675Z,18.79
2022-09-12T11:13:40.021Z,18.50
2022-09-12T11:16:43.072Z,18.41
2022-09-12T11:19:57.354Z,18.47
2022-09-12T11:23:22.289Z,18.59
2022-09-12T11:26:26.897Z,18.56
2022-09-12T11:29:47.283Z,18.59
2022-09-12T11:32:49.416Z,18.76
2022-09-12T11:35:55.431Z,18.88
2022-09-12T11:39:00.456Z,18.84
2022-09-12T11:42:02.611Z,18.75
2022-09-12T11:45:09.580Z,18.74
2022-09-12T11:48:31.106Z,18.70
2022-09-12T11:51:51.117Z,18.77
2022-09-12T11:54:53.879Z,18.86
2022-09-12T11:57:56.761Z,18.38
2022-09-12T12:01:24.527Z,18.06
2022-09-12T12:04:30.093Z,17.68
2022-09-12T12:07:32.203Z,17.48
2022-09-12T12:10:33.789Z,17.49
2022-09-12T12:13:43.480Z,17.52
2022-09-12T12:16:45.122Z,17.49
2022-09-12T12:19:46.705Z,17.50
2022-09-12T12:22:52.120Z,17.29
2022-09-12T12:25:55.008Z,17.20
2022-09-12T12:28:58.104Z,17.12
2022-09-12T12:31:59.593Z,17.13
2022-09-12T12:35:02.480Z,17.07
2022-09-12T12:38:04.674Z,17.01
2022-09-12T12:41:18.612Z,16.98
2022-09-12T12:44:43.748Z,16.87
2022-09-12T12:47:46.169Z,16.66
2022-09-12T12:50:48.441Z,16.36
2022-09-12T12:53:50.795Z,16.23
2022-09-12T12:57:00.558Z,16.00
2022-09-12T13:00:06.041Z,16.00
2022-09-12T13:03:07.667Z,16.00
2022-09-12T13:06:09.307Z,15.93
2022-09-12T13:09:29.116Z,15.93
2022-09-12T13:12:32.729Z,15.97
2022-09-12T13:15:37.583Z,16.02
2022-09-12T13:18:46.476Z,15.99
2022-09-12T13:21:55.201Z,16.00
2022-09-12T13:24:56.739Z,16.01
2022-09-12T13:28:02.738Z,15.77
2022-09-12T13:31:19.767Z,15.74
2022-09-12T13:34:44.702Z,15.69
2022-09-12T13:37:51.546Z,15.76
2022-09-12T13:41:00.095Z,15.79
2022-09-12T13:44:02.541Z,15.83
2022-09-12T13:47:04.151Z,15.87
2022-09-12T13:50:07.247Z,15.85
2022-09-12T13:53:17.300Z,15.85
2022-09-12T13:56:19.211Z,15.87
2022-09-12T13:59:21.110Z,15.87
2022-09-12T14:02:23.769Z,15.87
2022-09-12T14:05:25.941Z,15.87
2022-09-12T14:08:27.445Z,15.80
2022-09-12T14:11:29.921Z,15.74
2022-09-12T14:14:32.234Z,15.73
2022-09-12T14:17:39.738Z,15.74
2022-09-12T14:20:42.002Z,15.78
2022-09-12T14:23:43.926Z,15.78
2022-09-12T14:26:45.491Z,15.84
2022-09-12T14:29:47.346Z,15.87
2022-09-12T14:33:07.657Z,15.91
2022-09-12T14:36:15.569Z,15.90
2022-09-12T14:39:29.344Z,15.95
2022-09-12T14:42:31.368Z,15.82
2022-09-12T14:45:32.922Z,15.72
2022-09-12T14:48:37.772Z,15.68
2022-09-12T14:51:51.679Z,15.74
2022-09-12T14:55:18.786Z,15.78
2022-09-12T14:58:20.325Z,15.75
2022-09-12T15:01:22.929Z,15.77
2022-09-12T15:04:59.764Z,15.78
2022-09-12T15:08:01.910Z,15.66
2022-09-12T15:11:06.169Z,15.52
2022-09-12T15:14:13.844Z,15.45
2022-09-12T15:17:15.349Z,15.40
2022-09-12T15:20:16.890Z,15.44
2022-09-12T15:23:25.198Z,15.45
2022-09-12T15:26:30.490Z,15.50
2022-09-12T15:29:32.005Z,15.55
2022-09-12T15:32:33.538Z,15.58
2022-09-12T15:35:35.482Z,15.66
2022-09-12T15:38:37.123Z,15.68
2022-09-12T15:41:38.695Z,15.68
2022-09-12T15:44:40.314Z,15.68
2022-09-12T15:47:41.837Z,15.69
2022-09-12T15:50:43.590Z,15.66
2022-09-12T15:53:45.237Z,15.72
2022-09-12T15:56:47.256Z,15.82
2022-09-12T15:59:48.829Z,15.91
2022-09-12T16:02:51.174Z,15.94
2022-09-12T16:05:56.080Z,15.99
2022-09-12T16:08:57.635Z,16.12
2022-09-12T16:11:59.137Z,16.10
2022-09-12T16:15:00.870Z,16.17
2022-09-12T16:18:02.526Z,16.46
2022-09-12T16:21:04.189Z,16.57
2022-09-12T16:24:05.930Z,17.88
2022-09-12T16:27:09.389Z,18.37
2022-09-12T16:30:11.359Z,18.97
2022-09-12T16:33:13.327Z,19.19
2022-09-12T16:36:15.884Z,19.91
2022-09-12T16:39:17.600Z,19.78
2022-09-12T16:42:19.473Z,19.85
2022-09-12T16:45:21.114Z,20.21
2022-09-12T16:48:22.632Z,19.83
2022-09-12T16:51:28.537Z,19.48
2022-09-12T16:54:30.529Z,19.19
2022-09-12T16:57:32.826Z,19.70
2022-09-12T17:00:34.395Z,19.69
2022-09-12T17:03:36.197Z,19.80
2022-09-12T17:06:37.750Z,19.67
2022-09-12T17:09:39.926Z,19.74
2022-09-12T17:12:41.486Z,19.25
2022-09-12T17:15:43.087Z,19.10
2022-09-12T17:18:44.694Z,18.83
2022-09-12T17:21:48.707Z,18.73
2022-09-12T17:24:50.263Z,18.60
2022-09-12T17:27:53.095Z,18.16
2022-09-12T17:30:58.168Z,16.05
2022-09-12T17:34:00.190Z,14.97
2022-09-12T17:37:01.725Z,14.51
2022-09-12T17:40:03.890Z,14.32
2022-09-12T17:43:05.440Z,14.15
2022-09-12T17:46:07.904Z,13.98
2022-09-12T17:49:13.765Z,13.90
2022-09-12T17:52:15.661Z,14.59
2022-09-12T17:55:18.167Z,14.68
2022-09-12T17:58:20.668Z,14.42
2022-09-12T18:01:44.293Z,14.48
2022-09-12T18:04:46.827Z,14.66
2022-09-12T18:07:48.811Z,14.49
2022-09-12T18:10:51.182Z,14.18
2022-09-12T18:13:52.710Z,13.63
2022-09-12T18:16:54.358Z,13.41
2022-09-12T18:19:56.073Z,13.31
2022-09-12T18:22:57.904Z,13.13
2022-09-12T18:26:00.552Z,12.94
2022-09-12T18:29:05.723Z,12.79
2022-09-12T18:32:08.432Z,12.73
2022-09-12T18:35:12.157Z,12.58
2022-09-12T18:38:15.345Z,12.36
2022-09-12T18:41:18.399Z,12.21
2022-09-12T18:44:20.735Z,12.26
2022-09-12T18:47:24.633Z,12.21
2022-09-12T18:50:27.717Z,12.01
2022-09-12T18:53:29.406Z,11.99
2022-09-12T18:56:34.607Z,12.00
2022-09-12T18:59:36.154Z,11.87
2022-09-12T19:02:37.694Z,11.72
2022-09-12T19:05:39.997Z,11.69
2022-09-12T19:08:41.854Z,11.67
2022-09-12T19:11:50.313Z,11.69
2022-09-12T19:14:51.994Z,11.58
2022-09-12T19:17:53.623Z,11.48
2022-09-12T19:20:55.154Z,11.51
2022-09-12T19:23:58.153Z,11.49
2022-09-12T19:26:59.713Z,11.52
2022-09-12T19:30:01.298Z,11.47
2022-09-12T19:33:03.146Z,11.45
2022-09-12T19:36:10.648Z,11.38
2022-09-12T19:39:23.981Z,11.31
2022-09-12T19:42:25.531Z,11.29
2022-09-12T19:45:27.151Z,11.33
2022-09-12T19:48:29.318Z,11.40
2022-09-12T19:51:31.498Z,11.27
2022-09-12T19:54:33.146Z,11.13
2022-09-12T19:57:34.757Z,11.18
2022-09-12T20:00:36.554Z,11.13
2022-09-12T20:03:38.330Z,11.06
2022-09-12T20:06:39.917Z,10.99
2022-09-12T20:09:41.491Z,11.08
2022-09-12T20:12:43.161Z,11.16
2022-09-12T20:15:44.699Z,11.15
2022-09-12T20:18:46.313Z,11.24
2022-09-12T20:21:47.845Z,11.03
2022-09-12T20:24:49.539Z,10.86
2022-09-12T20:27:53.397Z,10.52
2022-09-12T20:31:03.427Z,10.38
2022-09-12T20:34:05.252Z,10.15
2022-09-12T20:37:06.899Z,10.11
2022-09-12T20:40:08.950Z,10.11
2022-09-12T20:43:10.571Z,9.75
2022-09-12T20:46:12.191Z,9.53
2022-09-12T20:49:13.893Z,9.90
2022-09-12T20:52:15.583Z,9.98
2022-09-12T20:55:17.154Z,9.84
2022-09-12T20:58:19.389Z,9.99
2022-09-12T21:01:21.294Z,10.11
2022-09-12T21:04:24.670Z,10.31
2022-09-12T21:07:26.298Z,10.28
2022-09-12T21:10:27.850Z,10.17
2022-09-12T21:13:29.938Z,10.26
2022-09-12T21:16:31.856Z,10.39
2022-09-12T21:19:34.256Z,10.48
2022-09-12T21:22:36.267Z,10.53
2022-09-12T21:25:37.857Z,10.52
2022-09-12T21:28:39.354Z,10.50
2022-09-12T21:31:41.756Z,10.49
2022-09-12T21:34:43.435Z,10.41
2022-09-12T21:37:45.101Z,10.35
2022-09-12T21:40:47.085Z,10.31
2022-09-12T21:43:48.783Z,10.32
2022-09-12T21:46:50.422Z,10.39
2022-09-12T21:49:52.145Z,10.35
2022-09-12T21:52:53.680Z,10.42
2022-09-12T21:55:55.266Z,10.44
2022-09-12T21:58:56.822Z,10.45
2022-09-12T22:01:58.521Z,10.32
2022-09-12T22:05:00.136Z,10.19
2022-09-12T22:08:02.001Z,10.12
2022-09-12T22:11:05.091Z,10.04
2022-09-12T22:14:06.669Z,10.10
2022-09-12T22:17:11.200Z,10.19
2022-09-12T22:20:12.798Z,10.30
2022-09-12T22:23:33.405Z,10.23
2022-09-12T22:26:42.181Z,10.26
2022-09-12T22:29:46.658Z,10.30
2022-09-12T22:32:50.025Z,10.12
2022-09-12T22:35:51.901Z,9.99
2022-09-12T22:38:53.549Z,9.75
2022-09-12T22:41:55.176Z,9.87
2022-09-12T22:44:56.832Z,9.87
2022-09-12T22:48:00.733Z,9.79
2022-09-12T22:51:03.001Z,9.70
2022-09-12T22:54:05.739Z,9.64
2022-09-12T22:57:07.409Z,9.56
2022-09-12T23:00:11.978Z,9.54
2022-09-12T23:03:13.681Z,9.52
2022-09-12T23:06:15.457Z,9.60
2022-09-12T23:09:17.022Z,9.66
2022-09-12T23:12:18.653Z,9.72
2022-09-12T23:15:20.319Z,9.80
2022-09-12T23:18:21.933Z,9.89
2022-09-12T23:21:23.701Z,9.95
2022-09-12T23:24:25.297Z,9.90
2022-09-12T23:27:27.831Z,9.90
2022-09-12T23:30:29.370Z,9.86
2022-09-12T23:46:55.645Z,8.99
2022-09-12T23:49:57.207Z,9.04
2022-09-12T23:52:58.725Z,9.08
2022-09-12T23:56:00.237Z,9.00
2022-09-12T23:59:01.741Z,9.04
